Winterville, Georgia
Current Conditions -  °F | °C
As of 12:51 PM on Tuesday 21 Oct 2014 (Local Time) from KAHN Reporting Station
Clear Clear  
Wind Chill: 74°   Ceiling: Unl
Heat Index: 74°   Visibility: 10mi
Dew Point: 52°   Wind: 13mph
Humidity: 46%   Direction: 310°NW
Pressure: 29.98"   Gusts: 18mph
Location:  33.97°N, 83.28°W
Report Text: KAHN 211651Z 31011G16KT 10SM CLR 23/11 A2998 RMK AO2 SLP149 T02330111
Loading
Personal Weather Stations






























Interactive Weather Map
Tropical Storm Tracking
New forecast layout! Learn more

10-Day Weather Forecast

Advertisements
Track Severe Weather on mobile